Time;durP1;ratioP1;P1;durP2;ratioP2;P2;SDS_P1;SDS_P2;PMS_P1;PMS_P2;Temp;Humidity;BMP_temperature;BMP_pressure;BME280_temperature;BME280_humidity;BME280_pressure;Samples;Min_cycle;Max_cycle;Signal;HPM_P1;HPM_P2
2021/01/03 00:02:34;;;;;;;64.97;39.43;;;;;;;0.89;88.76;99474.68;494008;1141;65154;-59
2021/01/03 00:12:39;;;;;;;58.43;37.67;;;;;;;0.74;88.53;99474.16;493673;1141;65133;-61
2021/01/03 00:22:43;;;;;;;62.70;38.30;;;;;;;0.57;88.01;99469.42;493559;1141;65132;-60
2021/01/03 00:32:48;;;;;;;61.67;40.73;;;;;;;0.50;88.28;99460.14;493848;1141;65143;-60
2021/01/03 00:42:52;;;;;;;62.17;39.27;;;;;;;0.46;88.32;99485.20;493339;1141;65108;-61
2021/01/03 00:52:56;;;;;;;54.93;33.57;;;;;;;0.32;88.67;99479.52;493990;1141;65135;-61
2021/01/03 01:03:02;;;;;;;56.80;34.47;;;;;;;0.35;89.04;99482.02;493968;1141;65127;-59
2021/01/03 01:13:06;;;;;;;56.30;35.75;;;;;;;0.37;89.24;99488.86;493632;1141;65115;-60
2021/01/03 01:23:10;;;;;;;56.63;35.27;;;;;;;0.32;89.06;99479.52;493532;1141;65207;-59
2021/01/03 01:33:14;;;;;;;56.10;36.10;;;;;;;0.35;88.85;99485.47;493859;1143;65113;-65
2021/01/03 01:43:19;;;;;;;56.07;35.80;;;;;;;0.38;89.39;99476.77;494039;1143;65210;-68
2021/01/03 01:53:34;;;;;;;55.30;33.93;;;;;;;0.42;88.65;99468.09;493495;1141;65360;-67
2021/01/03 02:03:46;;;;;;;61.13;36.90;;;;;;;0.40;88.58;99462.95;493891;1144;65217;-63
2021/01/03 02:13:53;;;;;;;53.63;32.80;;;;;;;0.40;88.59;99460.36;494050;1142;65115;-63
2021/01/03 02:24:05;;;;;;;49.23;31.93;;;;;;;0.46;88.58;99441.28;494552;1142;65536;-64
2021/01/03 02:34:14;;;;;;;46.20;29.53;;;;;;;0.49;88.92;99443.78;494418;1141;65554;-63
2021/01/03 02:44:18;;;;;;;50.27;31.90;;;;;;;0.57;89.24;99435.83;493881;1141;65177;-63
2021/01/03 02:54:22;;;;;;;48.55;30.95;;;;;;;0.54;88.30;99416.11;493717;1143;65528;-64
2021/01/03 03:04:26;;;;;;;42.50;29.00;;;;;;;0.51;88.37;99392.08;497446;1142;65461;-63
2021/01/03 03:14:30;;;;;;;43.15;28.95;;;;;;;0.46;88.25;99391.33;494189;1142;65520;-64
2021/01/03 03:24:34;;;;;;;41.80;26.70;;;;;;;0.41;88.38;99383.73;494302;1141;65110;-65
2021/01/03 03:34:38;;;;;;;47.80;31.90;;;;;;;0.42;89.09;99390.59;494368;1143;65581;-64
2021/01/03 03:44:43;;;;;;;43.80;29.03;;;;;;;0.42;88.73;99385.42;494280;1141;65143;-64
2021/01/03 03:54:47;;;;;;;38.70;26.37;;;;;;;0.44;88.74;99383.64;494046;1143;65105;-64
2021/01/03 04:04:50;;;;;;;44.37;28.37;;;;;;;0.43;88.79;99368.16;494372;1143;65204;-63
2021/01/03 04:14:54;;;;;;;39.40;28.30;;;;;;;0.38;88.54;99363.12;494164;1143;65616;-65
2021/01/03 04:24:59;;;;;;;42.50;28.85;;;;;;;0.39;88.19;99362.23;493753;1142;65673;-62
2021/01/03 04:35:05;;;;;;;34.67;23.83;;;;;;;0.37;88.68;99362.28;493537;1143;65430;-63
2021/01/03 04:45:21;;;;;;;40.50;25.83;;;;;;;0.39;88.21;99364.81;493979;1143;65201;-66
2021/01/03 04:55:26;;;;;;;36.90;25.33;;;;;;;0.41;88.02;99355.31;494343;1143;65206;-63
2021/01/03 05:05:37;;;;;;;39.27;28.00;;;;;;;0.44;88.04;99355.22;493749;1142;65118;-62
2021/01/03 05:15:42;;;;;;;41.87;28.07;;;;;;;0.40;88.52;99362.20;493776;1141;65246;-64
2021/01/03 05:25:48;;;;;;;40.15;26.75;;;;;;;0.37;88.79;99364.00;494106;1141;65104;-64
2021/01/03 05:35:53;;;;;;;44.50;27.45;;;;;;;0.30;88.78;99355.57;494142;1144;65130;-64
2021/01/03 05:46:06;;;;;;;44.53;28.97;;;;;;;0.21;88.21;99361.83;494577;1141;65465;-64
2021/01/03 05:56:22;;;;;;;48.67;31.20;;;;;;;0.16;88.76;99355.08;494710;1141;65111;-63
2021/01/03 06:06:37;;;;;;;45.13;29.80;;;;;;;0.06;89.33;99365.62;494522;1141;65242;-63
2021/01/03 06:16:47;;;;;;;48.30;32.37;;;;;;;0.05;89.44;99355.33;494932;1141;65124;-65
2021/01/03 06:26:54;;;;;;;50.45;31.50;;;;;;;0.02;88.72;99347.67;494329;1141;65234;-66
2021/01/03 06:36:59;;;;;;;;;;;;;;;0.02;88.52;99356.27;494384;1142;65131;-63
2021/01/03 06:47:42;;;;;;;54.03;32.33;;;;;;;0.06;89.71;99339.81;494165;1142;65130;-63
2021/01/03 06:58:34;;;;;;;56.13;32.83;;;;;;;0.08;89.66;99332.04;494170;1143;65557;-64
2021/01/03 07:08:41;;;;;;;54.90;35.20;;;;;;;0.10;89.57;99335.42;494170;1143;65154;-62
2021/01/03 07:18:53;;;;;;;54.53;33.70;;;;;;;0.13;89.18;99337.92;494350;1141;65495;-64
2021/01/03 07:29:07;;;;;;;55.23;31.53;;;;;;;0.20;89.42;99312.78;494339;1141;65481;-64
2021/01/03 07:39:18;;;;;;;57.63;35.33;;;;;;;0.26;89.32;99321.22;485897;1141;10001104;-64
2021/01/03 07:49:44;;;;;;;60.90;37.63;;;;;;;0.31;89.51;99312.52;493746;1141;65104;-62
2021/01/03 07:59:49;;;;;;;56.47;34.53;;;;;;;0.36;88.54;99318.40;494140;1141;65564;-62
2021/01/03 08:09:53;;;;;;;48.30;34.25;;;;;;;0.45;89.01;99300.08;493382;1141;65127;-62
2021/01/03 08:20:02;;;;;;;52.43;35.20;;;;;;;0.60;88.44;99327.23;493437;1141;65335;-63
2021/01/03 08:30:13;;;;;;;47.97;30.50;;;;;;;0.67;87.71;99312.41;494103;1141;65741;-63
2021/01/03 08:40:23;;;;;;;46.70;33.40;;;;;;;0.79;88.20;99317.23;493318;1141;65099;-65
2021/01/03 08:50:31;;;;;;;41.70;28.23;;;;;;;0.96;88.24;99337.44;493930;1141;65156;-63
2021/01/03 09:00:39;;;;;;;45.07;31.13;;;;;;;1.08;87.88;99348.32;493805;1143;65113;-66
2021/01/03 09:10:44;;;;;;;46.67;32.10;;;;;;;1.20;87.95;99342.78;493766;1141;65195;-64
2021/01/03 09:20:50;;;;;;;40.70;28.57;;;;;;;1.14;87.32;99329.19;494022;1141;65113;-62
2021/01/03 09:31:13;;;;;;;45.65;31.60;;;;;;;1.16;87.39;99366.20;493786;1141;65111;-62
2021/01/03 09:41:32;;;;;;;39.67;28.37;;;;;;;1.24;87.45;99318.52;493915;1141;65127;-62
2021/01/03 09:51:50;;;;;;;35.25;27.70;;;;;;;1.34;86.80;99331.17;493300;1142;65141;-63
2021/01/03 10:01:54;;;;;;;38.87;26.93;;;;;;;1.42;86.96;99312.83;493605;1141;65259;-63
2021/01/03 10:11:59;;;;;;;35.03;23.77;;;;;;;1.49;86.81;99332.45;493981;1144;65210;-64
2021/01/03 10:22:03;;;;;;;32.95;24.95;;;;;;;1.56;86.08;99322.76;493742;1141;65110;-62
2021/01/03 10:32:11;;;;;;;32.85;25.95;;;;;;;1.65;86.43;99320.71;493485;1141;65156;-63
2021/01/03 10:42:15;;;;;;;35.83;24.80;;;;;;;1.61;85.60;99301.02;493884;1141;65139;-63
2021/01/03 10:52:19;;;;;;;32.93;24.57;;;;;;;1.61;85.92;99289.80;493752;1142;65204;-65
2021/01/03 11:02:23;;;;;;;40.20;27.45;;;;;;;1.63;85.79;99275.09;493563;1143;65182;-64
2021/01/03 11:12:27;;;;;;;30.27;22.80;;;;;;;1.66;85.82;99274.98;493754;1144;65513;-65
2021/01/03 11:22:31;;;;;;;38.20;26.55;;;;;;;1.73;85.45;99267.86;493369;1141;66418;-63
2021/01/03 11:32:34;;;;;;;30.20;22.85;;;;;;;1.71;85.62;99262.72;493386;1142;65121;-65
2021/01/03 11:42:40;;;;;;;32.50;23.90;;;;;;;1.79;85.70;99257.28;493677;1143;65117;-64
2021/01/03 11:52:44;;;;;;;34.30;22.50;;;;;;;1.91;85.85;99258.63;493531;1143;65101;-63
2021/01/03 12:02:48;;;;;;;32.03;24.13;;;;;;;2.00;85.54;99260.06;493547;1141;65191;-64
2021/01/03 12:12:52;;;;;;;34.17;24.17;;;;;;;2.05;85.59;99253.82;493097;1141;65105;-64
2021/01/03 12:22:56;;;;;;;28.03;20.87;;;;;;;2.15;85.18;99245.73;493348;1141;65217;-69
2021/01/03 12:33:00;;;;;;;31.87;22.10;;;;;;;2.24;84.98;99242.83;493274;1142;65136;-65
2021/01/03 12:43:05;;;;;;;29.40;21.83;;;;;;;2.23;85.10;99249.74;493573;1142;65554;-68
2021/01/03 12:53:09;;;;;;;33.37;21.97;;;;;;;2.16;84.84;99226.70;493353;1142;65200;-61
2021/01/03 13:03:15;;;;;;;30.27;20.87;;;;;;;2.25;85.09;99262.66;493777;1141;65201;-65
2021/01/03 13:13:19;;;;;;;32.30;23.40;;;;;;;2.39;84.57;99262.17;493828;1142;65138;-65
2021/01/03 13:23:23;;;;;;;31.93;21.50;;;;;;;2.42;84.71;99254.28;493596;1141;65481;-67
2021/01/03 13:33:27;;;;;;;28.37;21.27;;;;;;;2.39;84.13;99244.03;493367;1141;65201;-66
2021/01/03 13:43:33;;;;;;;39.03;28.40;;;;;;;2.39;84.31;99236.27;493270;1141;65153;-60
2021/01/03 13:53:37;;;;;;;37.55;27.60;;;;;;;2.32;84.03;99239.96;493231;1141;65209;-62
2021/01/03 14:03:42;;;;;;;38.03;26.10;;;;;;;2.23;84.05;99247.16;493209;1141;65162;-66
2021/01/03 14:13:47;;;;;;;29.53;19.77;;;;;;;2.15;84.30;99249.19;493541;1143;65137;-64
2021/01/03 14:23:51;;;;;;;34.87;23.07;;;;;;;2.11;84.11;99244.99;494103;1142;65554;-67
2021/01/03 14:34:13;;;;;;;31.77;23.17;;;;;;;2.09;84.33;99249.39;494065;1141;65240;-71
2021/01/03 14:44:25;;;;;;;35.90;22.33;;;;;;;1.96;84.27;99249.81;493910;1141;65101;-71
2021/01/03 14:54:51;;;;;;;32.10;21.90;;;;;;;1.77;84.32;99246.14;493855;1143;65201;-70
2021/01/03 15:04:56;;;;;;;27.57;20.40;;;;;;;1.58;84.35;99256.27;493767;1143;65488;-69
2021/01/03 15:15:02;;;;;;;28.27;20.77;;;;;;;1.44;84.69;99254.11;493851;1142;65169;-72
2021/01/03 15:25:15;;;;;;;32.53;22.57;;;;;;;1.31;84.71;99266.60;493993;1142;65407;-70
2021/01/03 15:35:31;;;;;;;28.67;21.20;;;;;;;1.22;84.38;99247.88;493951;1141;65255;-68
2021/01/03 15:45:44;;;;;;;32.07;22.27;;;;;;;1.13;84.49;99260.26;494095;1142;65446;-64
2021/01/03 15:55:48;;;;;;;31.70;23.30;;;;;;;1.05;84.96;99260.50;494197;1141;65207;-69
2021/01/03 16:05:53;;;;;;;35.90;25.95;;;;;;;1.01;84.66;99257.16;493825;1141;65111;-65
2021/01/03 16:15:57;;;;;;;36.10;23.37;;;;;;;1.03;85.51;99251.91;494292;1141;65124;-67
2021/01/03 16:26:24;;;;;;;30.00;22.65;;;;;;;1.04;85.12;99241.53;493493;1141;65359;-62
2021/01/03 16:36:38;;;;;;;32.53;23.40;;;;;;;1.05;84.69;99253.56;493760;1142;65480;-69
2021/01/03 16:47:04;;;;;;;36.60;24.73;;;;;;;0.98;85.27;99246.87;493273;1143;65136;-61
2021/01/03 16:57:41;;;;;;;33.63;22.90;;;;;;;0.89;85.10;99260.11;493602;1142;65198;-59
2021/01/03 17:07:53;;;;;;;33.30;24.20;;;;;;;0.78;85.21;99258.68;493440;1141;65177;-68
2021/01/03 17:18:03;;;;;;;34.25;24.00;;;;;;;0.68;85.20;99254.66;493613;1143;65121;-68
2021/01/03 17:28:33;;;;;;;36.97;24.20;;;;;;;0.62;85.01;99266.02;494000;1141;65247;-68
2021/01/03 17:38:42;;;;;;;34.93;25.80;;;;;;;0.59;85.50;99270.42;493486;1141;65121;-68
2021/01/03 17:48:52;;;;;;;39.67;26.23;;;;;;;0.54;85.31;99279.16;493317;1141;65185;-60
2021/01/03 17:58:57;;;;;;;36.50;24.55;;;;;;;0.43;85.51;99282.92;493586;1141;65320;-60
2021/01/03 18:09:01;;;;;;;37.50;27.35;;;;;;;0.31;85.50;99279.78;493363;1141;65146;-73
2021/01/03 18:19:04;;;;;;;37.05;25.05;;;;;;;0.26;86.23;99281.66;493877;1143;65136;-70
2021/01/03 18:29:12;;;;;;;41.47;28.80;;;;;;;0.22;86.59;99280.88;493860;1143;65210;-71
2021/01/03 18:39:16;;;;;;;35.58;27.67;;;;;;;0.14;86.10;99277.64;493591;1142;65329;-61
2021/01/03 18:49:25;;;;;;;45.10;31.93;;;;;;;0.03;86.58;99275.36;493958;1142;65514;-67
2021/01/03 18:59:28;;;;;;;46.10;32.00;;;;;;;-0.03;86.63;99294.42;493928;1143;65166;-71
2021/01/03 19:09:35;;;;;;;52.80;32.67;;;;;;;-0.02;87.08;99303.86;493872;1143;65273;-66
2021/01/03 19:19:40;;;;;;;45.70;32.47;;;;;;;0.01;87.22;99308.11;494061;1143;65211;-65
2021/01/03 19:29:44;;;;;;;47.17;32.70;;;;;;;0.05;86.97;99308.86;494374;1141;65194;-67
2021/01/03 19:39:48;;;;;;;52.57;34.37;;;;;;;0.05;87.62;99309.72;493991;1141;65105;-67
2021/01/03 19:49:52;;;;;;;52.03;34.33;;;;;;;0.11;87.20;99319.05;493274;1143;65156;-60
2021/01/03 19:59:56;;;;;;;55.40;35.13;;;;;;;0.13;86.40;99315.55;493411;1143;65733;-59
2021/01/03 20:10:00;;;;;;;54.05;37.55;;;;;;;0.20;86.87;99343.77;493282;1143;65467;-68
2021/01/03 20:20:10;;;;;;;57.07;38.67;;;;;;;0.21;87.11;99337.72;493791;1143;65185;-73
2021/01/03 20:30:16;;;;;;;57.90;38.77;;;;;;;0.25;87.50;99336.77;493972;1142;65233;-73
2021/01/03 20:40:23;;;;;;;57.63;36.07;;;;;;;0.26;87.37;99348.80;494118;1142;65510;-70
2021/01/03 20:50:28;;;;;;;57.55;37.05;;;;;;;0.32;87.02;99352.95;494227;1143;65207;-65
2021/01/03 21:00:34;;;;;;;55.10;34.17;;;;;;;0.36;86.89;99355.42;494813;1141;65203;-63
2021/01/03 21:10:39;;;;;;;46.97;30.93;;;;;;;0.36;86.86;99358.01;494385;1141;65201;-71
2021/01/03 21:20:42;;;;;;;56.03;36.17;;;;;;;0.32;86.87;99358.13;494691;1141;65103;-67
2021/01/03 21:30:54;;;;;;;55.70;35.35;;;;;;;0.26;87.21;99344.46;493523;1143;65455;-67
2021/01/03 21:41:24;;;;;;;53.27;32.50;;;;;;;0.16;86.75;99358.49;485299;1141;10001935;-65
2021/01/03 21:51:38;;;;;;;57.50;35.97;;;;;;;0.13;86.83;99362.02;493530;1143;65172;-70
2021/01/03 22:02:11;;;;;;;58.60;37.43;;;;;;;0.10;87.24;99359.49;493569;1141;65108;-72
2021/01/03 22:12:28;;;;;;;54.50;34.80;;;;;;;0.10;86.96;99364.66;493423;1143;65127;-69
2021/01/03 22:22:46;;;;;;;;;;;;;;;0.13;87.29;99353.41;494010;1142;65242;-62
2021/01/03 22:32:56;;;;;;;60.63;36.33;;;;;;;0.20;87.35;99373.05;494267;1141;65116;-68
2021/01/03 22:43:33;;;;;;;47.53;29.50;;;;;;;0.36;87.24;99367.48;494497;1141;65127;-71
2021/01/03 22:53:45;;;;;;;54.77;34.03;;;;;;;0.41;87.28;99355.31;496254;1141;65105;-72
2021/01/03 23:04:13;;;;;;;62.57;32.53;;;;;;;0.34;87.52;99354.59;494217;1143;65184;-73
2021/01/03 23:14:22;;;;;;;59.83;35.37;;;;;;;0.43;86.39;99366.45;494110;1143;65136;-72
2021/01/03 23:24:31;;;;;;;54.07;33.47;;;;;;;0.41;86.73;99374.22;493767;1142;65780;-73
2021/01/03 23:34:39;;;;;;;55.23;33.80;;;;;;;0.37;86.81;99369.17;497334;1142;65219;-72
2021/01/03 23:44:47;;;;;;;52.67;30.20;;;;;;;0.44;86.77;99360.39;494020;1142;65216;-72
2021/01/03 23:55:16;;;;;;;54.53;32.00;;;;;;;0.56;86.73;99366.95;494004;1142;65465;-73
